Time;durP1;ratioP1;P1;durP2;ratioP2;P2;SDS_P1;SDS_P2;PMS_P1;PMS_P2;Temp;Humidity;BMP_temperature;BMP_pressure;BME280_temperature;BME280_humidity;BME280_pressure;Samples;Min_cycle;Max_cycle;Signal;HPM_P1;HPM_P2
2023/01/12 00:01:28;;;;;;;18.10;4.40;;;8.40;99.90;;;;;;5092340;28;20036;-58
2023/01/12 00:03:54;;;;;;;20.52;4.50;;;8.40;99.90;;;;;;5090363;28;20097;-58
2023/01/12 00:06:24;;;;;;;21.30;4.50;;;8.50;99.90;;;;;;5086923;28;20051;-60
2023/01/12 00:08:51;;;;;;;23.20;4.80;;;8.50;99.90;;;;;;5096139;28;20031;-57
2023/01/12 00:11:17;;;;;;;23.90;5.10;;;8.50;99.90;;;;;;5089414;28;20044;-58
2023/01/12 00:13:43;;;;;;;15.23;4.15;;;8.60;99.90;;;;;;5069547;28;20040;-58
2023/01/12 00:16:36;;;;;;;19.05;4.60;;;8.60;99.90;;;;;;5080858;28;20040;-60
2023/01/12 00:19:16;;;;;;;23.60;4.97;;;8.60;99.90;;;;;;5086465;28;20036;-56
2023/01/12 00:22:07;;;;;;;15.95;4.00;;;8.60;99.90;;;;;;5078225;28;20062;-59
2023/01/12 00:24:35;;;;;;;15.23;3.88;;;8.60;99.90;;;;;;5074990;28;20189;-53
2023/01/12 00:27:06;;;;;;;19.60;4.35;;;8.60;99.90;;;;;;5089571;28;20353;-58
2023/01/12 00:29:34;;;;;;;17.35;4.32;;;8.60;99.90;;;;;;5087167;28;20033;-60
2023/01/12 00:32:00;;;;;;;15.75;4.05;;;8.70;99.90;;;;;;5094228;28;20035;-60
2023/01/12 00:34:26;;;;;;;17.15;4.28;;;8.60;99.90;;;;;;5090319;28;20035;-61
2023/01/12 00:36:52;;;;;;;20.27;4.32;;;8.60;99.90;;;;;;5095786;28;20044;-59
2023/01/12 00:39:18;;;;;;;17.58;4.40;;;8.60;99.90;;;;;;5095417;28;20050;-55
2023/01/12 00:47:14;;;;;;;21.77;4.93;;;8.70;99.90;;;;;;5088575;28;20054;-56
2023/01/12 00:49:40;;;;;;;20.95;4.25;;;8.60;99.90;;;;;;5092208;28;20028;-59
2023/01/12 00:52:08;;;;;;;17.38;4.50;;;8.70;99.90;;;;;;5089882;28;20042;-56
2023/01/12 00:54:34;;;;;;;16.08;4.45;;;8.70;99.90;;;;;;5086287;28;20051;-55
2023/01/12 00:57:01;;;;;;;18.25;4.80;;;8.60;99.90;;;;;;5070243;28;20027;-58
2023/01/12 00:59:27;;;;;;;20.48;4.68;;;8.70;99.90;;;;;;5098109;28;20036;-58
2023/01/12 01:01:53;;;;;;;19.08;4.30;;;8.80;99.90;;;;;;5089648;28;20067;-61
2023/01/12 01:04:18;;;;;;;16.90;4.15;;;8.80;99.90;;;;;;5085494;28;20076;-60
2023/01/12 01:06:44;;;;;;;18.98;4.50;;;8.70;99.90;;;;;;5094549;28;20032;-59
2023/01/12 01:09:09;;;;;;;19.77;4.57;;;8.60;99.90;;;;;;5094723;28;20036;-56
2023/01/12 01:11:35;;;;;;;17.05;4.45;;;8.70;99.90;;;;;;5098546;28;20435;-57
2023/01/12 01:14:01;;;;;;;15.30;3.67;;;8.70;99.90;;;;;;5085956;28;20048;-57
2023/01/12 01:16:28;;;;;;;21.50;5.07;;;8.70;99.90;;;;;;5088982;28;20416;-58
2023/01/12 01:18:54;;;;;;;17.33;4.60;;;8.70;99.90;;;;;;5090012;28;20039;-60
2023/01/12 01:21:20;;;;;;;14.05;3.78;;;8.70;99.90;;;;;;5084276;28;20036;-56
2023/01/12 01:23:46;;;;;;;19.63;4.30;;;8.60;99.90;;;;;;5087720;28;20047;-57
2023/01/12 01:26:14;;;;;;;17.98;4.80;;;8.70;99.90;;;;;;5092467;28;20051;-58
2023/01/12 01:28:40;;;;;;;18.58;4.72;;;8.70;99.90;;;;;;5089381;28;20040;-58
2023/01/12 01:31:09;;;;;;;18.73;4.22;;;8.70;99.90;;;;;;5089271;28;20565;-56
2023/01/12 01:33:34;;;;;;;16.17;4.00;;;8.80;99.90;;;;;;5089844;28;20086;-58
2023/01/12 01:36:14;;;;;;;15.55;4.43;;;8.70;99.90;;;;;;5083118;28;20052;-58
2023/01/12 01:38:42;;;;;;;17.10;4.43;;;8.70;99.90;;;;;;5082807;28;20456;-57
2023/01/12 01:41:19;;;;;;;17.58;4.35;;;8.80;99.90;;;;;;5087005;28;20371;-60
2023/01/12 01:43:54;;;;;;;22.83;5.07;;;8.70;99.90;;;;;;5084045;28;20035;-57
2023/01/12 01:46:38;;;;;;;21.27;5.32;;;8.80;99.90;;;;;;5083034;28;20126;-57
2023/01/12 01:49:13;;;;;;;19.80;4.85;;;8.60;99.90;;;;;;5084910;28;20380;-57
2023/01/12 01:51:39;;;;;;;22.58;6.03;;;8.80;99.90;;;;;;5088325;28;20040;-59
2023/01/12 01:54:05;;;;;;;20.55;4.82;;;8.60;99.90;;;;;;5086119;28;20044;-57
2023/01/12 01:56:32;;;;;;;18.48;5.07;;;8.70;99.90;;;;;;5084995;28;20043;-57
2023/01/12 01:59:03;;;;;;;22.73;6.05;;;8.70;99.90;;;;;;5087805;28;20036;-57
2023/01/12 02:01:28;;;;;;;18.08;4.80;;;8.70;99.90;;;;;;5089944;28;20041;-58
2023/01/12 02:03:55;;;;;;;19.67;4.80;;;8.70;99.90;;;;;;5090179;28;20370;-60
2023/01/12 02:06:24;;;;;;;24.40;5.50;;;8.70;99.90;;;;;;5089522;28;20036;-56
2023/01/12 02:09:14;;;;;;;21.40;4.47;;;8.80;99.90;;;;;;5091278;28;20475;-57
2023/01/12 02:17:34;;;;;;;20.70;4.57;;;8.70;99.90;;;;;;5086290;28;20044;-57
2023/01/12 02:20:45;;;;;;;18.58;5.13;;;8.80;99.90;;;;;;5085539;28;20036;-58
2023/01/12 02:23:29;;;;;;;17.77;5.18;;;8.80;99.90;;;;;;5088258;28;20044;-58
2023/01/12 02:26:35;;;;;;;22.05;4.82;;;8.80;99.90;;;;;;5088538;28;20044;-61
2023/01/12 02:29:32;;;;;;;17.73;5.28;;;8.90;99.90;;;;;;5088819;28;20024;-58
2023/01/12 02:32:22;;;;;;;18.13;4.75;;;8.80;99.90;;;;;;5085976;28;20036;-56
2023/01/12 02:35:19;;;;;;;17.70;4.32;;;9.00;99.90;;;;;;5085896;28;20075;-56
2023/01/12 02:38:05;;;;;;;23.52;4.78;;;8.90;99.90;;;;;;5084740;28;20067;-57
2023/01/12 02:40:39;;;;;;;18.08;4.88;;;9.00;99.90;;;;;;5088116;28;20059;-58
2023/01/12 02:43:18;;;;;;;19.27;5.28;;;9.00;99.90;;;;;;5086483;28;20345;-60
2023/01/12 02:46:10;;;;;;;18.15;4.85;;;9.10;99.90;;;;;;5084102;28;20071;-56
2023/01/12 02:48:58;;;;;;;20.50;5.80;;;9.00;99.90;;;;;;5088106;28;20032;-60
2023/01/12 02:51:40;;;;;;;17.02;4.38;;;9.00;99.90;;;;;;5089934;28;20035;-57
2023/01/12 02:54:14;;;;;;;22.70;5.70;;;9.00;99.90;;;;;;5086376;28;20044;-58
2023/01/12 02:56:43;;;;;;;20.25;5.20;;;9.00;99.90;;;;;;5087549;28;20047;-57
2023/01/12 02:59:25;;;;;;;19.25;4.78;;;9.00;99.90;;;;;;5088658;28;20404;-55
2023/01/12 03:01:54;;;;;;;16.45;5.00;;;9.00;99.90;;;;;;5087802;28;20118;-58
2023/01/12 03:04:22;;;;;;;15.45;4.45;;;9.00;99.90;;;;;;5083221;28;20033;-58
2023/01/12 03:06:59;;;;;;;18.42;4.93;;;8.90;99.90;;;;;;5088657;28;20499;-60
2023/01/12 03:09:33;;;;;;;13.57;3.70;;;9.00;99.90;;;;;;5084833;28;20029;-60
2023/01/12 03:12:04;;;;;;;13.82;3.83;;;9.00;99.90;;;;;;5088041;28;20461;-57
2023/01/12 03:14:33;;;;;;;12.68;3.75;;;8.90;99.90;;;;;;5086055;28;20043;-62
2023/01/12 03:17:02;;;;;;;13.20;3.63;;;8.90;99.90;;;;;;5087846;28;20050;-60
2023/01/12 03:19:32;;;;;;;11.18;3.92;;;9.00;99.90;;;;;;5088307;28;20040;-60
2023/01/12 03:22:02;;;;;;;11.40;3.60;;;9.00;99.90;;;;;;5088616;28;20036;-58
2023/01/12 03:24:33;;;;;;;9.90;3.55;;;9.10;99.90;;;;;;5069165;28;20043;-58
2023/01/12 03:27:31;;;;;;;10.05;2.88;;;9.10;99.90;;;;;;5087863;28;20040;-60
2023/01/12 03:30:11;;;;;;;9.20;3.17;;;9.00;99.90;;;;;;5087630;28;20039;-58
2023/01/12 03:32:37;;;;;;;13.30;3.65;;;9.00;99.90;;;;;;5087918;28;20036;-59
2023/01/12 03:35:09;;;;;;;12.65;3.55;;;8.90;99.90;;;;;;5085185;28;20060;-60
2023/01/12 03:38:13;;;;;;;10.48;3.28;;;9.00;99.90;;;;;;5084918;28;20468;-59
2023/01/12 03:40:47;;;;;;;11.80;3.50;;;9.00;99.90;;;;;;4989239;28;20122;-61
2023/01/12 03:43:27;;;;;;;8.43;3.00;;;9.10;99.90;;;;;;4991960;28;20043;-58
2023/01/12 03:45:55;;;;;;;10.02;2.60;;;9.10;99.90;;;;;;5049649;28;20051;-57
2023/01/12 03:48:34;;;;;;;7.95;2.40;;;9.10;99.90;;;;;;5084077;28;20029;-56
2023/01/12 03:51:08;;;;;;;12.00;3.00;;;9.10;99.90;;;;;;5087994;28;20170;-57
2023/01/12 03:53:36;;;;;;;7.95;2.85;;;9.00;99.90;;;;;;5086076;28;20097;-57
2023/01/12 03:56:06;;;;;;;10.00;2.90;;;9.00;99.90;;;;;;5084157;28;20450;-53
2023/01/12 03:58:33;;;;;;;10.38;3.10;;;9.00;99.90;;;;;;5088250;28;20046;-58
2023/01/12 04:01:00;;;;;;;12.50;3.10;;;9.10;99.90;;;;;;5086844;28;20043;-58
2023/01/12 04:03:25;;;;;;;10.27;3.38;;;9.00;99.90;;;;;;5088804;28;20456;-60
2023/01/12 04:05:51;;;;;;;7.95;2.47;;;9.10;99.90;;;;;;5087647;28;20170;-56
2023/01/12 04:08:20;;;;;;;7.43;2.70;;;9.10;99.90;;;;;;5085085;28;20036;-59
2023/01/12 04:10:46;;;;;;;8.80;2.95;;;9.20;99.90;;;;;;5086168;28;20036;-57
2023/01/12 04:13:11;;;;;;;6.90;2.30;;;9.20;99.90;;;;;;5088755;28;20348;-56
2023/01/12 04:15:41;;;;;;;8.55;2.40;;;9.10;99.90;;;;;;5084432;28;20043;-56
2023/01/12 04:18:10;;;;;;;7.75;2.47;;;9.10;99.90;;;;;;5090219;28;20040;-57
2023/01/12 04:20:37;;;;;;;6.90;2.30;;;9.10;99.90;;;;;;5086921;28;20042;-58
2023/01/12 04:23:02;;;;;;;8.90;2.20;;;9.20;99.90;;;;;;5086441;28;20040;-56
2023/01/12 04:25:28;;;;;;;8.02;2.50;;;9.10;99.90;;;;;;5089930;28;20039;-57
2023/01/12 04:28:02;;;;;;;7.30;2.38;;;9.00;99.90;;;;;;5085031;28;20379;-59
2023/01/12 04:30:33;;;;;;;8.05;2.20;;;9.10;99.90;;;;;;5086111;28;20452;-56
2023/01/12 04:32:59;;;;;;;7.30;2.60;;;8.90;99.90;;;;;;5086632;28;20032;-59
2023/01/12 04:35:32;;;;;;;7.05;2.15;;;9.00;99.90;;;;;;5069056;28;20101;-61
2023/01/12 04:38:07;;;;;;;4.40;2.10;;;9.00;99.90;;;;;;5083678;28;20435;-56
2023/01/12 04:40:32;;;;;;;;;;;8.90;99.90;;;;;;5086193;28;20050;-59
2023/01/12 04:43:01;;;;;;;4.25;1.70;;;8.80;99.90;;;;;;5082763;28;20003;-54
2023/01/12 04:45:36;;;;;;;6.50;2.13;;;8.90;99.90;;;;;;5085261;28;20429;-60
2023/01/12 04:48:20;;;;;;;7.18;1.92;;;8.90;99.90;;;;;;5085810;28;20115;-60
2023/01/12 04:50:45;;;;;;;5.55;1.75;;;8.80;99.90;;;;;;5067406;28;20040;-58
2023/01/12 04:53:12;;;;;;;5.28;1.67;;;8.80;99.90;;;;;;5088300;28;20357;-58
2023/01/12 04:55:39;;;;;;;5.50;1.67;;;8.90;99.90;;;;;;5086439;28;20032;-58
2023/01/12 04:58:05;;;;;;;3.83;1.65;;;8.80;99.90;;;;;;5086112;28;20122;-59
2023/01/12 05:00:31;;;;;;;5.18;1.70;;;8.80;99.90;;;;;;5083862;28;20418;-57
2023/01/12 05:03:01;;;;;;;7.03;2.03;;;8.90;99.90;;;;;;5087592;28;20037;-56
2023/01/12 05:05:30;;;;;;;5.20;1.70;;;8.80;99.90;;;;;;5084013;28;20040;-57
2023/01/12 05:10:49;;;;;;;5.90;1.73;;;8.80;99.90;;;;;;5085061;28;20386;-57
2023/01/12 05:13:14;;;;;;;6.15;1.80;;;8.80;99.90;;;;;;5069901;28;20689;-53
2023/01/12 05:15:40;;;;;;;6.20;1.65;;;8.80;99.90;;;;;;5082546;28;20040;-56
2023/01/12 05:18:05;;;;;;;4.63;1.48;;;8.80;99.90;;;;;;5087020;28;20043;-57
2023/01/12 05:20:31;;;;;;;3.80;1.75;;;8.80;99.90;;;;;;5084403;28;20046;-56
2023/01/12 05:22:56;;;;;;;4.57;1.50;;;8.80;99.90;;;;;;5085506;28;20032;-57
2023/01/12 05:25:22;;;;;;;4.65;1.60;;;8.90;99.90;;;;;;5085316;28;20109;-56
2023/01/12 05:27:47;;;;;;;6.30;1.95;;;8.90;99.90;;;;;;5085667;28;20137;-57
2023/01/12 05:30:13;;;;;;;6.68;1.60;;;8.80;99.90;;;;;;5085448;28;20127;-59
2023/01/12 05:32:42;;;;;;;5.63;1.50;;;9.00;99.90;;;;;;5087682;28;20118;-59
2023/01/12 05:35:17;;;;;;;6.85;1.90;;;8.90;99.90;;;;;;5090190;28;20084;-57
2023/01/12 05:37:43;;;;;;;3.97;1.60;;;8.90;99.90;;;;;;5085061;28;20368;-57
2023/01/12 05:40:10;;;;;;;4.60;1.60;;;8.90;99.90;;;;;;5090415;28;20088;-60
2023/01/12 05:45:19;;;;;;;3.33;1.30;;;8.80;99.90;;;;;;5089593;28;20135;-57
2023/01/12 05:47:45;;;;;;;5.10;1.70;;;8.90;99.90;;;;;;5090598;28;20341;-58
2023/01/12 05:50:10;;;;;;;4.45;1.58;;;8.90;99.90;;;;;;5087637;28;20076;-55
2023/01/12 05:52:36;;;;;;;3.58;1.80;;;8.90;99.90;;;;;;5089479;28;20036;-53
2023/01/12 05:55:02;;;;;;;4.50;1.45;;;8.90;99.90;;;;;;5088424;28;20043;-55
2023/01/12 05:57:29;;;;;;;4.82;2.03;;;9.00;99.90;;;;;;5088669;28;20082;-56
2023/01/12 05:59:54;;;;;;;5.45;1.90;;;8.90;99.90;;;;;;5090069;28;20347;-56
2023/01/12 06:02:20;;;;;;;4.72;1.65;;;9.00;99.90;;;;;;5075073;28;20028;-58
2023/01/12 06:04:46;;;;;;;5.15;1.77;;;8.90;99.90;;;;;;5091272;28;20036;-55
2023/01/12 06:07:13;;;;;;;5.05;1.80;;;8.90;99.90;;;;;;5093510;28;20448;-56
2023/01/12 06:09:39;;;;;;;4.20;1.80;;;9.00;99.90;;;;;;5092268;28;20344;-58
2023/01/12 06:14:50;;;;;;;5.60;1.80;;;9.00;99.90;;;;;;5088062;28;20384;-60
2023/01/12 06:17:16;;;;;;;5.22;1.75;;;9.00;99.90;;;;;;5092491;28;20040;-60
2023/01/12 06:19:41;;;;;;;4.97;1.58;;;9.00;99.90;;;;;;5093957;28;20466;-57
2023/01/12 06:22:07;;;;;;;3.20;1.50;;;9.20;99.90;;;;;;5094036;28;20043;-55
2023/01/12 06:24:33;;;;;;;3.38;1.40;;;9.20;99.90;;;;;;5090586;28;20044;-57
2023/01/12 06:26:59;;;;;;;4.40;1.50;;;9.10;99.90;;;;;;5093823;28;20043;-58
2023/01/12 06:29:24;;;;;;;3.13;1.60;;;9.10;99.90;;;;;;5091850;28;20376;-59
2023/01/12 06:31:50;;;;;;;3.80;1.63;;;9.30;99.90;;;;;;5087632;28;20028;-58
2023/01/12 06:34:16;;;;;;;4.88;1.40;;;9.20;99.90;;;;;;5091561;28;20036;-59
2023/01/12 06:36:52;;;;;;;4.13;1.40;;;9.20;99.90;;;;;;5091632;28;20056;-57
2023/01/12 06:39:17;;;;;;;3.22;1.38;;;9.30;99.90;;;;;;5100202;28;20075;-59
2023/01/12 06:44:27;;;;;;;2.83;1.40;;;9.30;99.90;;;;;;5074186;28;20082;-58
2023/01/12 06:46:52;;;;;;;2.72;1.50;;;9.30;99.90;;;;;;5099131;28;20067;-59
2023/01/12 06:49:18;;;;;;;4.00;1.52;;;9.10;99.90;;;;;;5097184;28;20106;-55
2023/01/12 06:51:46;;;;;;;4.70;1.58;;;9.20;99.90;;;;;;5094600;28;20046;-57
2023/01/12 06:54:12;;;;;;;5.05;1.60;;;9.10;99.90;;;;;;5070956;28;20056;-60
2023/01/12 06:56:37;;;;;;;2.58;1.38;;;9.20;99.90;;;;;;5091379;28;20044;-59
2023/01/12 06:59:03;;;;;;;1.95;1.38;;;9.30;99.90;;;;;;5093969;28;20040;-56
2023/01/12 07:01:28;;;;;;;3.50;1.58;;;9.20;99.90;;;;;;5094563;28;20353;-54
2023/01/12 07:03:54;;;;;;;3.35;1.33;;;9.10;99.90;;;;;;5091224;28;20079;-55
2023/01/12 07:06:19;;;;;;;3.67;1.55;;;9.30;99.90;;;;;;5069176;28;20135;-55
2023/01/12 07:08:45;;;;;;;3.20;1.70;;;9.20;99.90;;;;;;5097245;28;20122;-59
2023/01/12 07:11:15;;;;;;;3.03;1.50;;;9.10;99.90;;;;;;5107112;28;20195;-57
2023/01/12 07:13:41;;;;;;;2.20;1.48;;;9.10;99.90;;;;;;5082999;28;20080;-57
2023/01/12 07:16:07;;;;;;;2.70;1.77;;;9.30;99.90;;;;;;5104093;28;20397;-57
2023/01/12 07:18:33;;;;;;;3.17;1.75;;;9.20;99.90;;;;;;5089859;28;20032;-57
2023/01/12 07:21:02;;;;;;;4.10;1.90;;;9.30;99.90;;;;;;5088816;28;20511;-57
2023/01/12 07:23:27;;;;;;;2.47;1.60;;;9.30;99.90;;;;;;5094350;28;20035;-57
2023/01/12 07:25:56;;;;;;;2.28;1.80;;;9.40;99.90;;;;;;5088439;28;20032;-56
2023/01/12 07:28:21;;;;;;;3.58;1.60;;;9.20;99.90;;;;;;5091647;28;20035;-59
2023/01/12 07:30:47;;;;;;;3.25;1.92;;;9.20;99.90;;;;;;5089508;28;20088;-58
2023/01/12 07:33:14;;;;;;;4.47;1.92;;;9.20;99.90;;;;;;5099277;28;20040;-57
2023/01/12 07:35:40;;;;;;;2.33;1.70;;;9.40;99.90;;;;;;5087565;28;20128;-59
2023/01/12 07:38:06;;;;;;;3.42;2.08;;;9.50;99.90;;;;;;5067116;28;20028;-54
2023/01/12 07:40:32;;;;;;;3.38;2.20;;;9.50;99.90;;;;;;5066903;28;20326;-57
2023/01/12 07:43:02;;;;;;;3.00;2.10;;;9.50;99.90;;;;;;5066965;28;20037;-57
2023/01/12 07:45:29;;;;;;;4.38;2.35;;;9.40;99.90;;;;;;5067437;28;20155;-57
2023/01/12 07:47:55;;;;;;;3.88;2.15;;;9.40;99.90;;;;;;5064641;28;20033;-58
2023/01/12 07:50:22;;;;;;;4.78;2.42;;;9.50;99.90;;;;;;5067898;28;20037;-53
2023/01/12 07:52:48;;;;;;;3.20;2.22;;;9.40;99.90;;;;;;5067587;28;20049;-58
2023/01/12 07:55:18;;;;;;;5.47;3.00;;;9.60;99.90;;;;;;5062801;28;20055;-56
2023/01/12 07:57:54;;;;;;;6.65;2.83;;;9.60;99.90;;;;;;5064836;28;20060;-56
2023/01/12 08:00:22;;;;;;;9.25;3.10;;;9.60;99.90;;;;;;5064873;28;20329;-60
2023/01/12 08:02:52;;;;;;;10.57;3.17;;;9.60;99.90;;;;;;5067955;28;20037;-56
2023/01/12 08:05:18;;;;;;;9.82;3.28;;;9.70;99.90;;;;;;5061429;28;20041;-57
2023/01/12 08:07:45;;;;;;;11.93;3.35;;;9.80;99.90;;;;;;5067764;28;20052;-57
2023/01/12 08:10:12;;;;;;;11.75;3.30;;;10.00;99.90;;;;;;5068262;28;20087;-58
2023/01/12 08:12:38;;;;;;;15.15;3.63;;;9.90;99.90;;;;;;5067231;28;20111;-57
2023/01/12 08:15:04;;;;;;;17.90;4.95;;;9.90;99.90;;;;;;5066033;28;20028;-59
2023/01/12 08:17:33;;;;;;;16.77;4.30;;;10.10;99.90;;;;;;5067169;28;20432;-57
2023/01/12 08:20:06;;;;;;;19.80;4.78;;;10.30;99.90;;;;;;5067101;28;20481;-57
2023/01/12 08:22:35;;;;;;;23.25;5.00;;;10.30;99.90;;;;;;5065424;28;20094;-58
2023/01/12 08:25:15;;;;;;;29.58;6.13;;;10.30;99.90;;;;;;5062805;28;20114;-57
2023/01/12 08:27:44;;;;;;;28.13;6.15;;;10.20;99.90;;;;;;5046873;28;20089;-58
2023/01/12 08:30:14;;;;;;;23.67;5.25;;;10.30;99.90;;;;;;5067362;28;20053;-58
2023/01/12 08:32:40;;;;;;;26.42;6.63;;;10.40;99.90;;;;;;5069435;28;20033;-60
2023/01/12 08:35:14;;;;;;;28.95;6.72;;;10.60;99.90;;;;;;5051488;28;20084;-60
2023/01/12 08:37:46;;;;;;;33.08;6.57;;;10.70;99.90;;;;;;5050727;28;20052;-60
2023/01/12 08:40:13;;;;;;;23.73;6.18;;;10.70;99.90;;;;;;5050252;28;20044;-60
2023/01/12 08:42:39;;;;;;;23.58;6.47;;;10.80;99.90;;;;;;5066529;28;20032;-57
2023/01/12 08:45:06;;;;;;;24.20;5.40;;;10.70;99.90;;;;;;5063187;28;20045;-59
2023/01/12 08:47:33;;;;;;;21.77;6.03;;;10.90;99.90;;;;;;5065052;28;20412;-59
2023/01/12 08:49:59;;;;;;;32.90;7.22;;;10.80;99.90;;;;;;5067152;28;20107;-55
2023/01/12 08:52:28;;;;;;;23.70;5.93;;;10.80;99.90;;;;;;5066288;28;20365;-60
2023/01/12 08:54:54;;;;;;;29.80;7.22;;;10.90;99.90;;;;;;5065002;28;20036;-54
2023/01/12 08:57:20;;;;;;;35.10;7.88;;;10.90;99.90;;;;;;5065988;28;20130;-57
2023/01/12 08:59:45;;;;;;;30.90;6.53;;;10.90;99.90;;;;;;5064630;28;20044;-58
2023/01/12 09:02:19;;;;;;;28.45;7.10;;;11.00;99.90;;;;;;5063783;28;20041;-59
2023/01/12 09:04:44;;;;;;;33.97;6.73;;;11.10;99.90;;;;;;5069938;28;20159;-56
2023/01/12 09:07:11;;;;;;;21.27;5.22;;;11.10;99.90;;;;;;5065420;28;20366;-57
2023/01/12 09:09:37;;;;;;;21.52;5.22;;;11.10;99.90;;;;;;5066588;28;20105;-58
2023/01/12 09:12:03;;;;;;;17.40;4.93;;;11.00;99.90;;;;;;5065586;28;20033;-58
2023/01/12 09:14:29;;;;;;;26.52;5.65;;;11.20;99.90;;;;;;5062504;28;20063;-56
2023/01/12 09:16:57;;;;;;;23.05;5.13;;;11.20;99.90;;;;;;5064953;28;20478;-60
2023/01/12 09:19:23;;;;;;;22.00;5.10;;;11.30;99.90;;;;;;5064351;28;20040;-59
2023/01/12 09:21:50;;;;;;;21.67;4.82;;;11.30;99.90;;;;;;5065272;28;20363;-57
2023/01/12 09:24:15;;;;;;;18.20;4.80;;;11.40;99.90;;;;;;5064953;28;20405;-59
2023/01/12 09:26:44;;;;;;;18.88;5.18;;;11.30;99.90;;;;;;5066380;28;20103;-57
2023/01/12 09:29:11;;;;;;;23.45;5.55;;;11.50;99.90;;;;;;5066725;28;20453;-56
2023/01/12 09:31:38;;;;;;;20.00;5.03;;;11.50;99.90;;;;;;5066154;28;20043;-57
2023/01/12 09:34:04;;;;;;;17.83;5.30;;;11.40;99.90;;;;;;5066624;28;20086;-57
2023/01/12 09:36:32;;;;;;;19.73;5.18;;;11.50;99.90;;;;;;5079539;28;20080;-56
2023/01/12 09:39:02;;;;;;;20.00;5.13;;;11.60;99.90;;;;;;5091861;28;20436;-58
2023/01/12 09:47:42;;;;;;;21.20;5.22;;;11.50;99.90;;;;;;5089643;28;20067;-58
2023/01/12 09:50:12;;;;;;;24.25;5.65;;;11.50;99.90;;;;;;5087368;28;20368;-57
2023/01/12 09:52:41;;;;;;;18.80;4.75;;;11.60;99.90;;;;;;5089186;28;20047;-60
2023/01/12 09:55:26;;;;;;;21.35;4.78;;;11.40;99.90;;;;;;5092749;28;20074;-57
2023/01/12 09:58:27;;;;;;;19.02;5.13;;;11.50;99.90;;;;;;5089847;28;20032;-53
2023/01/12 10:00:55;;;;;;;17.75;5.00;;;11.60;99.90;;;;;;5088125;28;20040;-57
2023/01/12 10:03:34;;;;;;;20.58;4.85;;;11.50;99.90;;;;;;5089110;28;20094;-53
2023/01/12 10:06:00;;;;;;;21.52;5.78;;;11.40;99.90;;;;;;5089751;28;20435;-56
2023/01/12 10:08:40;;;;;;;28.85;5.43;;;11.30;99.90;;;;;;5096431;28;20028;-59
2023/01/12 10:11:09;;;;;;;25.55;6.00;;;11.30;99.90;;;;;;5100036;28;20055;-57
2023/01/12 10:14:15;;;;;;;25.42;6.22;;;11.20;99.90;;;;;;5088637;28;20385;-57
2023/01/12 10:17:08;;;;;;;23.42;5.90;;;11.20;99.90;;;;;;5089457;28;20040;-60
2023/01/12 10:19:45;;;;;;;37.20;9.55;;;11.20;99.90;;;;;;5099039;28;20032;-59
2023/01/12 10:22:36;;;;;;;40.03;9.40;;;11.30;99.90;;;;;;5090671;28;20414;-60
2023/01/12 10:25:20;;;;;;;41.58;9.02;;;11.10;99.90;;;;;;5061661;28;20059;-54
2023/01/12 10:27:48;;;;;;;33.47;6.90;;;11.00;99.90;;;;;;5088700;28;20042;-59
2023/01/12 10:30:19;;;;;;;29.55;6.90;;;11.00;99.90;;;;;;5059267;28;20044;-57
2023/01/12 10:32:45;;;;;;;32.42;7.82;;;11.00;99.90;;;;;;5092198;28;20556;-57
2023/01/12 10:35:14;;;;;;;27.85;6.28;;;11.10;99.90;;;;;;5091871;28;20056;-57
2023/01/12 10:37:49;;;;;;;29.40;5.65;;;11.10;99.90;;;;;;5091708;28;20464;-58
2023/01/12 10:40:26;;;;;;;28.52;6.25;;;11.00;99.90;;;;;;5100590;28;20040;-61
2023/01/12 10:43:30;;;;;;;30.90;6.63;;;11.20;99.90;;;;;;5097559;28;20190;-57
2023/01/12 10:46:22;;;;;;;26.85;5.97;;;11.20;99.90;;;;;;5093360;28;20090;-60
2023/01/12 10:49:11;;;;;;;25.35;5.53;;;11.10;99.90;;;;;;5088312;28;20031;-55
2023/01/12 10:51:48;;;;;;;20.08;5.10;;;11.10;99.90;;;;;;5096259;28;20135;-60
2023/01/12 10:54:18;;;;;;;22.40;5.55;;;11.10;99.90;;;;;;5090380;28;20150;-56
2023/01/12 10:57:15;;;;;;;23.83;5.95;;;11.30;99.90;;;;;;5088532;28;20093;-56
2023/01/12 10:59:50;;;;;;;25.63;6.15;;;11.30;99.90;;;;;;5091248;28;20465;-58
2023/01/12 11:02:16;;;;;;;23.13;6.50;;;11.40;99.90;;;;;;5074213;28;20037;-59
2023/01/12 11:04:47;;;;;;;24.52;6.22;;;11.50;99.90;;;;;;5088804;28;20131;-59
2023/01/12 11:07:14;;;;;;;20.42;5.22;;;11.50;99.90;;;;;;5101113;28;20040;-57
2023/01/12 11:09:42;;;;;;;21.92;5.18;;;11.50;99.90;;;;;;5095316;28;20115;-57
2023/01/12 11:12:34;;;;;;;17.25;4.28;;;11.70;99.90;;;;;;5093662;28;20043;-58
2023/01/12 11:15:01;;;;;;;18.85;4.95;;;11.70;99.90;;;;;;5092527;28;20040;-57
2023/01/12 11:17:35;;;;;;;20.00;5.35;;;11.70;99.90;;;;;;5092907;28;20039;-59
2023/01/12 11:20:03;;;;;;;;;;;11.70;99.90;;;;;;5090981;28;20042;-57
2023/01/12 11:22:34;;;;;;;22.63;5.97;;;11.90;99.90;;;;;;5089898;28;20012;-61
2023/01/12 11:25:06;;;;;;;21.25;4.95;;;11.80;99.90;;;;;;5089934;28;20035;-56
2023/01/12 11:27:39;;;;;;;23.52;6.20;;;11.80;99.90;;;;;;5093718;28;20074;-57
2023/01/12 11:30:34;;;;;;;19.57;5.40;;;11.90;99.90;;;;;;5087571;28;20120;-58
2023/01/12 11:33:08;;;;;;;22.08;5.85;;;11.90;99.90;;;;;;5093103;28;20296;-58
2023/01/12 11:35:56;;;;;;;25.55;5.10;;;11.80;99.90;;;;;;5085846;28;20055;-57
2023/01/12 11:38:37;;;;;;;24.83;6.20;;;11.70;99.90;;;;;;5058196;28;20410;-56
2023/01/12 11:41:08;;;;;;;27.45;5.85;;;11.70;99.90;;;;;;5069702;28;20040;-57
2023/01/12 11:43:59;;;;;;;23.42;5.70;;;11.80;99.90;;;;;;5065315;28;20409;-57
2023/01/12 11:46:31;;;;;;;28.45;7.60;;;11.60;99.90;;;;;;5066778;28;20369;-61
2023/01/12 11:49:09;;;;;;;29.17;8.38;;;11.70;99.90;;;;;;5067236;28;20391;-56
2023/01/12 11:51:35;;;;;;;28.35;7.40;;;11.50;99.90;;;;;;5069925;28;20033;-58
2023/01/12 11:54:00;;;;;;;27.77;7.57;;;11.50;99.90;;;;;;5065361;28;20036;-56
2023/01/12 11:56:33;;;;;;;29.02;7.63;;;11.60;99.90;;;;;;5070031;28;20349;-53
2023/01/12 11:59:03;;;;;;;24.67;6.60;;;11.70;99.90;;;;;;5070677;28;20040;-57
2023/01/12 12:01:44;;;;;;;24.38;6.68;;;11.50;99.90;;;;;;5070236;28;20107;-58
2023/01/12 12:04:31;;;;;;;23.95;7.28;;;11.60;99.90;;;;;;5067728;28;20497;-59
2023/01/12 12:07:13;;;;;;;21.17;6.57;;;11.70;99.90;;;;;;5071510;28;20029;-56
2023/01/12 12:09:53;;;;;;;25.08;6.25;;;11.80;99.90;;;;;;5072039;28;20040;-61
2023/01/12 12:12:45;;;;;;;25.70;7.55;;;11.90;99.90;;;;;;5069853;28;20039;-58
2023/01/12 12:15:26;;;;;;;26.90;6.45;;;11.80;99.90;;;;;;5054888;28;20052;-61
2023/01/12 12:18:29;;;;;;;21.70;6.03;;;11.80;99.90;;;;;;5060846;28;20037;-56
2023/01/12 12:21:08;;;;;;;22.10;5.57;;;11.80;99.90;;;;;;5033946;28;20388;-63
2023/01/12 12:24:02;;;;;;;25.25;6.30;;;11.80;99.90;;;;;;5065152;28;20050;-56
2023/01/12 12:26:37;;;;;;;26.73;6.05;;;11.90;99.90;;;;;;5063503;28;20472;-57
2023/01/12 12:29:22;;;;;;;19.83;5.60;;;12.00;99.90;;;;;;5063824;28;20345;-55
2023/01/12 12:32:27;;;;;;;21.20;5.15;;;12.00;99.90;;;;;;5065402;28;20150;-59
2023/01/12 12:35:45;;;;;;;24.02;5.72;;;12.00;99.90;;;;;;5060822;28;20500;-57
2023/01/12 12:38:35;;;;;;;25.83;5.28;;;12.00;99.90;;;;;;4979579;28;20098;-57
2023/01/12 12:47:56;;;;;;;21.77;5.45;;;12.10;99.90;;;;;;5073472;28;20123;-59
2023/01/12 12:50:29;;;;;;;18.77;5.13;;;12.00;99.90;;;;;;4990265;28;20513;-60
2023/01/12 12:53:21;;;;;;;23.98;5.50;;;12.00;99.90;;;;;;5068074;28;20055;-60
2023/01/12 12:55:49;;;;;;;27.35;6.53;;;12.10;99.90;;;;;;5069565;28;20051;-58
2023/01/12 12:58:21;;;;;;;19.85;5.10;;;12.00;99.90;;;;;;5071130;28;20059;-60
2023/01/12 13:00:52;;;;;;;23.15;5.75;;;11.90;99.90;;;;;;5071457;28;20093;-60
2023/01/12 13:03:40;;;;;;;30.02;7.05;;;12.00;99.90;;;;;;5055150;28;20036;-58
2023/01/12 13:06:10;;;;;;;17.63;4.75;;;11.90;99.90;;;;;;5074267;28;20044;-57
2023/01/12 13:08:37;;;;;;;24.42;5.00;;;12.00;99.90;;;;;;5073860;28;20045;-58
2023/01/12 13:11:04;;;;;;;25.70;5.72;;;11.90;99.90;;;;;;5079021;28;20122;-57
2023/01/12 13:13:36;;;;;;;20.92;5.90;;;11.80;99.90;;;;;;5066577;28;20041;-61
2023/01/12 13:16:24;;;;;;;22.00;5.53;;;11.70;99.90;;;;;;5068908;28;20058;-59
2023/01/12 13:19:03;;;;;;;23.20;6.13;;;11.60;99.90;;;;;;5045347;28;20052;-56
2023/01/12 13:21:42;;;;;;;23.50;5.72;;;11.50;99.90;;;;;;5047901;28;20040;-56
2023/01/12 13:24:23;;;;;;;22.02;5.13;;;11.40;99.90;;;;;;5067891;28;20044;-57
2023/01/12 13:26:51;;;;;;;19.08;4.97;;;11.20;99.90;;;;;;5053036;28;20462;-59
2023/01/12 13:29:23;;;;;;;19.65;4.40;;;11.20;99.90;;;;;;5068911;28;20096;-59
2023/01/12 13:32:07;;;;;;;17.50;4.00;;;11.20;99.90;;;;;;5074854;28;20044;-59
2023/01/12 13:34:35;;;;;;;15.75;3.50;;;11.30;99.90;;;;;;5066283;28;20059;-55
2023/01/12 13:37:42;;;;;;;14.18;3.70;;;11.20;99.90;;;;;;5065062;28;20068;-54
2023/01/12 13:40:20;;;;;;;16.75;3.70;;;11.30;99.90;;;;;;5061289;28;20044;-57
2023/01/12 13:45:35;;;;;;;13.73;4.05;;;11.20;99.90;;;;;;5042924;28;20047;-58
2023/01/12 13:48:03;;;;;;;14.32;4.10;;;11.30;99.90;;;;;;5064415;28;20041;-58
2023/01/12 13:50:30;;;;;;;14.35;3.88;;;11.30;99.90;;;;;;5064797;28;20036;-57